Terminal Aerodrome Forecast
Issued by NWS

Home | Current Version | Previous Version | Graphics & Text | Print | Product List | Glossary On
Versions: 1 2 3 4 5 6 7 8 9 10 11 12 13 14 15 16 17 18 19
920
FTUS43 KGRB 211140
TAFCWA
TAF
KCWA 211140Z 2112/2212 22008G16KT P6SM OVC009
      TEMPO 2112/2114 31025G40KT 1SM TSRA BR BKN005CB
     FM211400 22009KT P6SM OVC015
     FM211600 23011G18KT P6SM BKN025
     FM211800 23012G20KT P6SM BKN035
     FM212000 24012G19KT P6SM SCT040
     FM220100 25008KT P6SM SCT040
     FM220600 28004KT 3SM BR SCT020
     FM220700 29004KT 2SM BR SCT020=

USA.gov is the U.S. government's official web portal to all federal, state and local government web resources and services.